Time;durP1;ratioP1;P1;durP2;ratioP2;P2;SDS_P1;SDS_P2;PMS_P1;PMS_P2;Temp;Humidity;BMP_temperature;BMP_pressure;BME280_temperature;BME280_humidity;BME280_pressure;Samples;Min_cycle;Max_cycle;Signal;HPM_P1;HPM_P2
2021/12/09 00:00:23;;;;;;;7.45;4.55;;;;;;;;;;5054188;28;20028;-56
2021/12/09 00:02:49;;;;;;;5.43;2.90;;;;;;;;;;5053995;28;20029;-53
2021/12/09 00:05:17;;;;;;;3.90;2.00;;;;;;;;;;5073155;28;20033;-52
2021/12/09 00:07:44;;;;;;;6.90;2.43;;;;;;;;;;5073487;28;20050;-55
2021/12/09 00:10:12;;;;;;;2.80;2.00;;;;;;;;;;5073215;28;20430;-55
2021/12/09 00:12:38;;;;;;;2.93;1.70;;;;;;;;;;5074020;28;20393;-54
2021/12/09 00:15:05;;;;;;;2.97;1.73;;;;;;;;;;5074199;28;20033;-55
2021/12/09 00:17:31;;;;;;;3.10;2.00;;;;;;;;;;5073692;28;20048;-55
2021/12/09 00:19:57;;;;;;;1.97;1.40;;;;;;;;;;5073105;28;20443;-54
2021/12/09 00:22:25;;;;;;;6.27;1.93;;;;;;;;;;5073547;28;20029;-55
2021/12/09 00:24:51;;;;;;;3.00;1.43;;;;;;;;;;5033738;28;20026;-52
2021/12/09 00:27:17;;;;;;;2.30;1.43;;;;;;;;;;5033336;28;20387;-56
2021/12/09 00:29:43;;;;;;;3.53;1.53;;;;;;;;;;5033144;28;20030;-55
2021/12/09 00:32:09;;;;;;;2.97;1.40;;;;;;;;;;5033547;28;20026;-55
2021/12/09 00:34:37;;;;;;;2.77;1.47;;;;;;;;;;5033277;28;20366;-55
2021/12/09 00:39:51;;;;;;;1.83;1.20;;;;;;;;;;5033041;28;20064;-54
2021/12/09 00:42:17;;;;;;;4.13;1.97;;;;;;;;;;5033226;28;20021;-56
2021/12/09 00:44:43;;;;;;;2.17;1.23;;;;;;;;;;5033207;28;20053;-55
2021/12/09 00:47:09;;;;;;;3.10;1.50;;;;;;;;;;5033386;28;20076;-56
2021/12/09 00:49:35;;;;;;;1.70;1.17;;;;;;;;;;5032366;28;20117;-54
2021/12/09 00:52:02;;;;;;;3.87;1.27;;;;;;;;;;5033432;28;20072;-56
2021/12/09 00:54:28;;;;;;;3.87;1.53;;;;;;;;;;5033195;28;20356;-56
2021/12/09 00:56:54;;;;;;;1.87;1.07;;;;;;;;;;5033078;28;20060;-51
2021/12/09 00:59:20;;;;;;;2.10;1.50;;;;;;;;;;5032472;28;20112;-53
2021/12/09 01:01:46;;;;;;;4.47;1.50;;;;;;;;;;5032658;28;20112;-56
2021/12/09 01:04:12;;;;;;;4.60;2.37;;;;;;;;;;5054013;28;20035;-56
2021/12/09 01:06:38;;;;;;;1.67;1.03;;;;;;;;;;5072974;28;20059;-51
2021/12/09 01:09:05;;;;;;;2.03;1.20;;;;;;;;;;5072278;28;20067;-53
2021/12/09 01:11:31;;;;;;;1.67;1.00;;;;;;;;;;5072741;28;20029;-56
2021/12/09 01:13:57;;;;;;;1.93;1.20;;;;;;;;;;5072609;28;20038;-51
2021/12/09 01:16:23;;;;;;;1.90;1.30;;;;;;;;;;5072668;28;20031;-52
2021/12/09 01:18:49;;;;;;;6.53;2.00;;;;;;;;;;5071692;28;20115;-54
2021/12/09 01:21:16;;;;;;;2.93;1.57;;;;;;;;;;5072811;28;20427;-52
2021/12/09 01:23:42;;;;;;;10.07;1.83;;;;;;;;;;5061766;28;20471;-55
2021/12/09 01:26:08;;;;;;;1.40;1.10;;;;;;;;;;5052503;28;20068;-55
2021/12/09 01:28:45;;;;;;;1.40;1.00;;;;;;;;;;5051644;28;20065;-53
2021/12/09 01:31:11;;;;;;;7.43;2.17;;;;;;;;;;5052385;28;20113;-56
2021/12/09 01:33:37;;;;;;;2.63;1.77;;;;;;;;;;5051992;28;20036;-54
2021/12/09 01:36:04;;;;;;;3.27;1.67;;;;;;;;;;5052279;28;20037;-54
2021/12/09 01:38:32;;;;;;;3.70;1.97;;;;;;;;;;5051526;28;20067;-54
2021/12/09 01:40:58;;;;;;;6.93;2.03;;;;;;;;;;5052233;28;20068;-52
2021/12/09 01:43:24;;;;;;;3.90;2.10;;;;;;;;;;5052072;28;20044;-56
2021/12/09 01:46:01;;;;;;;3.07;2.37;;;;;;;;;;5051748;28;20121;-51
2021/12/09 01:48:27;;;;;;;6.73;2.40;;;;;;;;;;5051603;28;20501;-55
2021/12/09 01:50:54;;;;;;;3.70;2.43;;;;;;;;;;5052370;28;20127;-55
2021/12/09 01:53:20;;;;;;;4.13;2.97;;;;;;;;;;5052135;28;20118;-55
2021/12/09 01:55:46;;;;;;;2.63;2.03;;;;;;;;;;5052090;28;20064;-56
2021/12/09 01:58:12;;;;;;;4.40;2.43;;;;;;;;;;5051952;28;20068;-56
2021/12/09 02:00:38;;;;;;;5.87;3.30;;;;;;;;;;5058498;28;20033;-56
2021/12/09 02:03:05;;;;;;;3.87;2.43;;;;;;;;;;5060117;28;20098;-54
2021/12/09 02:05:32;;;;;;;3.83;2.73;;;;;;;;;;5078865;28;20267;-54
2021/12/09 02:07:58;;;;;;;4.30;3.30;;;;;;;;;;5078172;28;20025;-51
2021/12/09 02:10:25;;;;;;;3.10;2.53;;;;;;;;;;5079104;28;20051;-52
2021/12/09 02:12:52;;;;;;;4.30;3.00;;;;;;;;;;5078442;28;20032;-52
2021/12/09 02:15:20;;;;;;;3.20;2.50;;;;;;;;;;5079046;28;20024;-56
2021/12/09 02:17:46;;;;;;;5.33;3.20;;;;;;;;;;5078380;28;20415;-56
2021/12/09 02:20:12;;;;;;;2.83;2.03;;;;;;;;;;5078654;28;20024;-52
2021/12/09 02:22:38;;;;;;;3.93;3.07;;;;;;;;;;5076940;28;20024;-56
2021/12/09 02:25:05;;;;;;;8.67;3.43;;;;;;;;;;5058437;28;20235;-54
2021/12/09 02:27:31;;;;;;;4.00;2.97;;;;;;;;;;5058413;28;20474;-52
2021/12/09 02:29:57;;;;;;;3.03;2.43;;;;;;;;;;5057985;28;20379;-55
2021/12/09 02:32:23;;;;;;;7.33;3.67;;;;;;;;;;5058695;28;20052;-56
2021/12/09 02:34:49;;;;;;;3.73;3.07;;;;;;;;;;5058702;28;20032;-51
2021/12/09 02:37:16;;;;;;;3.93;3.43;;;;;;;;;;5058486;28;20413;-54
2021/12/09 02:39:43;;;;;;;5.43;4.00;;;;;;;;;;5057745;28;20112;-55
2021/12/09 02:42:09;;;;;;;5.57;3.13;;;;;;;;;;5058343;28;20378;-54
2021/12/09 02:44:35;;;;;;;4.33;3.60;;;;;;;;;;5058318;28;20078;-57
2021/12/09 02:47:02;;;;;;;7.00;5.30;;;;;;;;;;5058423;28;20072;-55
2021/12/09 02:49:29;;;;;;;8.17;5.47;;;;;;;;;;5057674;28;20033;-53
2021/12/09 02:51:55;;;;;;;4.73;4.17;;;;;;;;;;5058528;28;20360;-55
2021/12/09 02:54:22;;;;;;;4.30;3.60;;;;;;;;;;5058223;28;20039;-54
2021/12/09 02:56:49;;;;;;;10.00;5.37;;;;;;;;;;5058127;28;20036;-56
2021/12/09 02:59:16;;;;;;;6.80;4.40;;;;;;;;;;5057278;28;20501;-53
2021/12/09 03:01:57;;;;;;;7.17;4.50;;;;;;;;;;5058403;28;20025;-55
2021/12/09 03:04:23;;;;;;;6.80;5.00;;;;;;;;;;5070277;28;20039;-51
2021/12/09 03:06:51;;;;;;;6.90;4.27;;;;;;;;;;5078211;28;20036;-55
2021/12/09 03:09:17;;;;;;;6.93;5.80;;;;;;;;;;5077262;28;20036;-53
2021/12/09 03:11:44;;;;;;;5.77;4.50;;;;;;;;;;5074148;28;20154;-55
2021/12/09 03:14:11;;;;;;;7.63;3.70;;;;;;;;;;5074831;28;20501;-55
2021/12/09 03:16:40;;;;;;;13.17;5.57;;;;;;;;;;5074943;28;20033;-51
2021/12/09 03:19:07;;;;;;;6.07;4.63;;;;;;;;;;5074205;28;20028;-52
2021/12/09 03:21:45;;;;;;;9.80;4.70;;;;;;;;;;5074830;28;20054;-51
2021/12/09 03:24:14;;;;;;;6.33;4.47;;;;;;;;;;5060287;28;20051;-56
2021/12/09 03:26:42;;;;;;;9.13;4.87;;;;;;;;;;5054787;28;20087;-54
2021/12/09 03:29:10;;;;;;;7.87;4.97;;;;;;;;;;5053912;28;20025;-56
2021/12/09 03:31:40;;;;;;;12.10;4.43;;;;;;;;;;5054450;28;20025;-54
2021/12/09 03:34:07;;;;;;;14.30;4.43;;;;;;;;;;5054510;28;20088;-50
2021/12/09 03:36:33;;;;;;;8.00;4.10;;;;;;;;;;5054594;28;20067;-49
2021/12/09 03:39:01;;;;;;;16.23;5.30;;;;;;;;;;5054347;28;20025;-55
2021/12/09 03:41:27;;;;;;;5.30;4.30;;;;;;;;;;5054272;28;20462;-55
2021/12/09 03:43:53;;;;;;;10.57;5.93;;;;;;;;;;5054430;28;20036;-49
2021/12/09 03:46:19;;;;;;;6.90;3.80;;;;;;;;;;5054086;28;20025;-53
2021/12/09 03:48:45;;;;;;;8.73;3.37;;;;;;;;;;5053528;28;20394;-52
2021/12/09 03:51:11;;;;;;;6.10;4.43;;;;;;;;;;5054310;28;20441;-50
2021/12/09 03:53:37;;;;;;;5.97;4.23;;;;;;;;;;5054342;28;20033;-52
2021/12/09 03:56:03;;;;;;;4.00;3.10;;;;;;;;;;5054241;28;20032;-51
2021/12/09 03:58:29;;;;;;;9.57;3.40;;;;;;;;;;5053540;28;20422;-50
2021/12/09 04:00:55;;;;;;;7.50;3.93;;;;;;;;;;5053975;28;20267;-50
2021/12/09 04:03:21;;;;;;;14.17;5.00;;;;;;;;;;5057537;28;20027;-49
2021/12/09 04:05:48;;;;;;;6.37;4.03;;;;;;;;;;5073989;28;20032;-50
2021/12/09 04:08:14;;;;;;;9.13;3.87;;;;;;;;;;5073595;28;20043;-52
2021/12/09 04:10:40;;;;;;;8.03;5.17;;;;;;;;;;5073752;28;20031;-49
2021/12/09 04:13:06;;;;;;;7.80;4.53;;;;;;;;;;5074140;28;20040;-50
2021/12/09 04:15:33;;;;;;;5.67;4.37;;;;;;;;;;5073621;28;20367;-50
2021/12/09 04:17:59;;;;;;;10.10;5.33;;;;;;;;;;5072966;28;20485;-51
2021/12/09 04:20:25;;;;;;;9.63;4.50;;;;;;;;;;5074147;28;20028;-51
2021/12/09 04:22:51;;;;;;;5.10;3.63;;;;;;;;;;5069943;28;20032;-51
2021/12/09 04:25:17;;;;;;;13.33;4.90;;;;;;;;;;5053429;28;20033;-52
2021/12/09 04:27:44;;;;;;;3.77;2.83;;;;;;;;;;5053324;28;20032;-51
2021/12/09 04:30:10;;;;;;;11.60;4.60;;;;;;;;;;5052580;28;20029;-50
2021/12/09 04:32:36;;;;;;;4.90;3.00;;;;;;;;;;5049082;28;20037;-50
2021/12/09 04:35:02;;;;;;;10.00;4.03;;;;;;;;;;5043395;28;20090;-53
2021/12/09 04:37:28;;;;;;;7.10;3.47;;;;;;;;;;5033375;28;20026;-51
2021/12/09 04:39:54;;;;;;;7.43;4.40;;;;;;;;;;5032813;28;20049;-52
2021/12/09 04:42:20;;;;;;;6.40;4.10;;;;;;;;;;5033522;28;20054;-51
2021/12/09 04:44:46;;;;;;;13.13;4.40;;;;;;;;;;5035610;28;20116;-50
2021/12/09 04:47:12;;;;;;;6.47;3.97;;;;;;;;;;5051908;28;20049;-51
2021/12/09 04:49:38;;;;;;;9.00;3.73;;;;;;;;;;5051216;28;20064;-52
2021/12/09 04:52:07;;;;;;;5.70;3.63;;;;;;;;;;5053183;28;20056;-56
2021/12/09 04:54:36;;;;;;;4.37;2.70;;;;;;;;;;5050933;28;20045;-52
2021/12/09 04:57:02;;;;;;;4.43;3.57;;;;;;;;;;5033063;28;20049;-51
2021/12/09 04:59:28;;;;;;;8.27;4.10;;;;;;;;;;5032757;28;20026;-51
2021/12/09 05:01:54;;;;;;;12.57;3.80;;;;;;;;;;5032749;28;20032;-51
2021/12/09 05:04:20;;;;;;;6.43;3.03;;;;;;;;;;5055764;28;20029;-50
2021/12/09 05:06:46;;;;;;;9.53;3.33;;;;;;;;;;5052311;28;20036;-53
2021/12/09 05:09:16;;;;;;;4.17;2.50;;;;;;;;;;5052347;28;20044;-52
2021/12/09 05:14:08;;;;;;;4.40;2.87;;;;;;;;;;5052599;28;20285;-48
2021/12/09 05:16:35;;;;;;;5.13;2.73;;;;;;;;;;5033855;28;20031;-50
2021/12/09 05:19:01;;;;;;;5.87;2.97;;;;;;;;;;5032140;28;20037;-53
2021/12/09 05:21:34;;;;;;;9.37;3.17;;;;;;;;;;5032993;28;20490;-49
2021/12/09 05:24:00;;;;;;;9.23;2.90;;;;;;;;;;5045678;28;20037;-49
2021/12/09 05:26:31;;;;;;;5.60;3.93;;;;;;;;;;5051627;28;20032;-50
2021/12/09 05:28:57;;;;;;;6.07;3.27;;;;;;;;;;5051448;28;20336;-49
2021/12/09 05:34:09;;;;;;;7.70;4.43;;;;;;;;;;5051637;28;20040;-49
2021/12/09 05:36:36;;;;;;;4.80;3.03;;;;;;;;;;5033975;28;20037;-50
2021/12/09 05:39:02;;;;;;;6.97;3.60;;;;;;;;;;5031833;28;20022;-49
2021/12/09 05:41:28;;;;;;;5.47;3.10;;;;;;;;;;5032281;28;20045;-50
2021/12/09 05:43:54;;;;;;;7.17;2.77;;;;;;;;;;5032602;28;20151;-53
2021/12/09 05:46:22;;;;;;;5.87;2.33;;;;;;;;;;5033254;28;20029;-51
2021/12/09 05:48:48;;;;;;;5.00;2.90;;;;;;;;;;5031635;28;20052;-50
2021/12/09 05:51:14;;;;;;;4.93;2.40;;;;;;;;;;5032314;28;20029;-53
2021/12/09 05:53:40;;;;;;;6.50;2.97;;;;;;;;;;5032209;28;20514;-54
2021/12/09 05:56:06;;;;;;;4.97;3.17;;;;;;;;;;5045172;28;20025;-51
2021/12/09 05:58:32;;;;;;;7.30;3.50;;;;;;;;;;5051263;28;20131;-51
2021/12/09 06:00:58;;;;;;;8.63;3.67;;;;;;;;;;5051643;28;20463;-51
2021/12/09 06:03:24;;;;;;;7.87;3.07;;;;;;;;;;5051141;28;20550;-53
2021/12/09 06:05:51;;;;;;;11.60;3.70;;;;;;;;;;5051548;28;20463;-53
2021/12/09 06:08:17;;;;;;;12.47;4.43;;;;;;;;;;5050212;28;20021;-53
2021/12/09 06:10:43;;;;;;;6.30;3.03;;;;;;;;;;5051890;28;20021;-50
2021/12/09 06:13:09;;;;;;;4.23;2.60;;;;;;;;;;5048915;28;20029;-49
2021/12/09 06:15:35;;;;;;;6.37;4.17;;;;;;;;;;5031991;28;20099;-51
2021/12/09 06:18:01;;;;;;;3.17;1.80;;;;;;;;;;5031427;28;20499;-54
2021/12/09 06:20:27;;;;;;;7.23;2.60;;;;;;;;;;5031748;28;20380;-53
2021/12/09 06:22:53;;;;;;;3.77;2.70;;;;;;;;;;5035529;28;20029;-53
2021/12/09 06:25:20;;;;;;;2.90;1.77;;;;;;;;;;5051526;28;20109;-53
2021/12/09 06:27:48;;;;;;;4.97;2.70;;;;;;;;;;5051053;28;20494;-56
2021/12/09 06:30:14;;;;;;;8.23;3.57;;;;;;;;;;5051882;28;20377;-51
2021/12/09 06:32:41;;;;;;;6.70;2.93;;;;;;;;;;5051676;28;20433;-50
2021/12/09 06:35:07;;;;;;;9.40;3.23;;;;;;;;;;5033237;28;20043;-54
2021/12/09 06:37:35;;;;;;;4.27;2.70;;;;;;;;;;5031593;28;20034;-51
2021/12/09 06:40:01;;;;;;;2.90;1.63;;;;;;;;;;5031399;28;20057;-54
2021/12/09 06:42:27;;;;;;;4.17;2.30;;;;;;;;;;5031865;28;20034;-55
2021/12/09 06:44:53;;;;;;;4.10;2.30;;;;;;;;;;5048130;28;20028;-54
2021/12/09 06:47:19;;;;;;;5.97;1.97;;;;;;;;;;5055348;28;20060;-55
2021/12/09 06:49:45;;;;;;;15.27;3.87;;;;;;;;;;5054570;28;20032;-55
2021/12/09 06:52:11;;;;;;;5.27;2.50;;;;;;;;;;5055210;28;20029;-54
2021/12/09 06:54:37;;;;;;;3.60;2.43;;;;;;;;;;5041927;28;20502;-53
2021/12/09 06:57:03;;;;;;;3.13;2.37;;;;;;;;;;5035428;28;20542;-55
2021/12/09 06:59:29;;;;;;;6.23;4.13;;;;;;;;;;5034733;28;20022;-50
2021/12/09 07:01:55;;;;;;;7.63;2.97;;;;;;;;;;5035136;28;20051;-51
2021/12/09 07:04:21;;;;;;;8.20;3.47;;;;;;;;;;5060083;28;20033;-54
2021/12/09 07:06:47;;;;;;;2.87;2.20;;;;;;;;;;5074820;28;20032;-55
2021/12/09 07:09:14;;;;;;;12.83;3.90;;;;;;;;;;5074563;28;20107;-50
2021/12/09 07:11:44;;;;;;;3.10;2.20;;;;;;;;;;5074992;28;20381;-55
2021/12/09 07:14:10;;;;;;;3.85;2.72;;;;;;;;;;5062032;28;20040;-56
2021/12/09 07:16:36;;;;;;;11.20;2.70;;;;;;;;;;5053942;28;20029;-51
2021/12/09 07:19:02;;;;;;;9.43;2.70;;;;;;;;;;5053413;28;20378;-53
2021/12/09 07:21:28;;;;;;;7.00;3.27;;;;;;;;;;5054599;28;20029;-54
2021/12/09 07:23:54;;;;;;;3.03;2.20;;;;;;;;;;5042834;28;20088;-53
2021/12/09 07:26:20;;;;;;;5.10;2.93;;;;;;;;;;5034175;28;20042;-51
2021/12/09 07:28:46;;;;;;;3.20;2.30;;;;;;;;;;5032302;28;20109;-56
2021/12/09 07:31:12;;;;;;;9.20;2.50;;;;;;;;;;5033438;28;20021;-53
2021/12/09 07:33:38;;;;;;;6.60;2.93;;;;;;;;;;5042351;28;20033;-54
2021/12/09 07:36:05;;;;;;;4.87;2.47;;;;;;;;;;5053190;28;20120;-53
2021/12/09 07:38:31;;;;;;;8.63;4.23;;;;;;;;;;5052821;28;20029;-54
2021/12/09 07:40:57;;;;;;;6.37;2.57;;;;;;;;;;5052678;28;20017;-57
2021/12/09 07:43:23;;;;;;;4.47;3.17;;;;;;;;;;5034575;28;20029;-52
2021/12/09 07:45:49;;;;;;;5.53;2.93;;;;;;;;;;5034244;28;20112;-53
2021/12/09 07:48:15;;;;;;;4.23;2.90;;;;;;;;;;5033646;28;20384;-56
2021/12/09 07:50:41;;;;;;;3.83;2.67;;;;;;;;;;5034168;28;20025;-54
2021/12/09 07:53:07;;;;;;;4.83;3.07;;;;;;;;;;5051949;28;20041;-54
2021/12/09 07:55:33;;;;;;;5.50;2.77;;;;;;;;;;5054178;28;20025;-55
2021/12/09 07:57:59;;;;;;;5.93;3.13;;;;;;;;;;5052803;28;20032;-50
2021/12/09 08:00:27;;;;;;;5.30;3.90;;;;;;;;;;5054189;28;20285;-54
2021/12/09 08:02:54;;;;;;;8.87;4.43;;;;;;;;;;5037758;28;20037;-55
2021/12/09 08:05:21;;;;;;;7.87;4.17;;;;;;;;;;5073815;28;20032;-53
2021/12/09 08:07:46;;;;;;;4.90;3.13;;;;;;;;;;5073286;28;20029;-55
2021/12/09 08:10:13;;;;;;;7.10;3.40;;;;;;;;;;5074136;28;20472;-52
2021/12/09 08:12:40;;;;;;;13.43;4.10;;;;;;;;;;5059608;28;20102;-53
2021/12/09 08:15:07;;;;;;;10.50;4.20;;;;;;;;;;5053820;28;20033;-50
2021/12/09 08:20:18;;;;;;;4.43;2.73;;;;;;;;;;5053737;28;20108;-50
2021/12/09 08:22:45;;;;;;;5.13;3.17;;;;;;;;;;5042126;28;20042;-54
2021/12/09 08:25:13;;;;;;;8.67;3.40;;;;;;;;;;5053682;28;20099;-54
2021/12/09 08:27:40;;;;;;;11.40;4.73;;;;;;;;;;5053359;28;20478;-49
2021/12/09 08:30:07;;;;;;;5.00;3.63;;;;;;;;;;5052943;28;20032;-52
2021/12/09 08:32:33;;;;;;;4.33;3.33;;;;;;;;;;5052864;28;20166;-53
2021/12/09 08:34:59;;;;;;;6.73;3.60;;;;;;;;;;5044369;28;20036;-55
2021/12/09 08:37:25;;;;;;;12.03;3.90;;;;;;;;;;5033314;28;20033;-52
2021/12/09 08:39:51;;;;;;;10.47;4.33;;;;;;;;;;5032842;28;20082;-52
2021/12/09 08:42:18;;;;;;;5.87;3.87;;;;;;;;;;5033518;28;20029;-51
2021/12/09 08:44:44;;;;;;;7.70;4.00;;;;;;;;;;5038779;28;20119;-55
2021/12/09 08:47:10;;;;;;;8.43;4.00;;;;;;;;;;5053378;28;20032;-51
2021/12/09 08:49:36;;;;;;;9.83;4.23;;;;;;;;;;5052488;28;20564;-52
2021/12/09 08:52:03;;;;;;;5.97;3.33;;;;;;;;;;5053194;28;20307;-53
2021/12/09 08:54:29;;;;;;;9.97;3.37;;;;;;;;;;5048905;28;20099;-52
2021/12/09 08:56:55;;;;;;;7.23;4.47;;;;;;;;;;5032959;28;20491;-54
2021/12/09 08:59:22;;;;;;;4.78;3.45;;;;;;;;;;5032152;28;20040;-54
2021/12/09 09:01:48;;;;;;;8.50;3.57;;;;;;;;;;5033156;28;20032;-50
2021/12/09 09:04:14;;;;;;;8.90;4.47;;;;;;;;;;5052236;28;20024;-56
2021/12/09 09:06:50;;;;;;;6.83;4.33;;;;;;;;;;5052859;28;20051;-55
2021/12/09 09:09:16;;;;;;;6.40;3.47;;;;;;;;;;5051234;28;20110;-54
2021/12/09 09:11:42;;;;;;;5.87;3.83;;;;;;;;;;5052685;28;20163;-54
2021/12/09 09:14:08;;;;;;;7.50;3.70;;;;;;;;;;5049582;28;20111;-53
2021/12/09 09:16:34;;;;;;;7.30;4.57;;;;;;;;;;5032918;28;20026;-52
2021/12/09 09:19:00;;;;;;;3.97;3.40;;;;;;;;;;5032233;28;20021;-56
2021/12/09 09:21:28;;;;;;;5.75;3.88;;;;;;;;;;5032767;28;20115;-54
2021/12/09 09:23:55;;;;;;;4.43;3.25;;;;;;;;;;5043791;28;20486;-53
2021/12/09 09:26:21;;;;;;;9.75;4.75;;;;;;;;;;5052167;28;20126;-55
2021/12/09 09:28:47;;;;;;;5.25;4.03;;;;;;;;;;5051860;28;20462;-54
2021/12/09 09:31:13;;;;;;;5.20;3.33;;;;;;;;;;5052702;28;20364;-50
2021/12/09 09:33:39;;;;;;;5.47;4.80;;;;;;;;;;5050851;28;20076;-55
2021/12/09 09:36:06;;;;;;;5.57;3.93;;;;;;;;;;5051744;28;20033;-57
2021/12/09 09:38:32;;;;;;;6.53;4.47;;;;;;;;;;5051991;28;20266;-54
2021/12/09 09:41:07;;;;;;;7.40;4.63;;;;;;;;;;5052017;28;20027;-56
2021/12/09 09:43:55;;;;;;;6.65;4.25;;;;;;;;;;5052038;28;20073;-57
2021/12/09 09:46:26;;;;;;;9.27;4.27;;;;;;;;;;5032243;28;20033;-52
2021/12/09 09:48:53;;;;;;;5.13;4.15;;;;;;;;;;5031708;28;20026;-54
2021/12/09 09:51:21;;;;;;;6.93;4.18;;;;;;;;;;5032121;28;20460;-55
2021/12/09 09:53:47;;;;;;;9.32;5.00;;;;;;;;;;5033827;28;20518;-54
2021/12/09 09:56:17;;;;;;;4.20;3.57;;;;;;;;;;5051836;28;20378;-53
2021/12/09 09:59:03;;;;;;;4.60;4.17;;;;;;;;;;5051460;28;20029;-54
2021/12/09 10:01:30;;;;;;;6.87;4.93;;;;;;;;;;5052447;28;20025;-54
2021/12/09 10:04:10;;;;;;;5.38;3.90;;;;;;;;;;5053551;28;20402;-52
2021/12/09 10:06:36;;;;;;;4.00;3.17;;;;;;;;;;5051852;28;20029;-54
2021/12/09 10:09:03;;;;;;;6.90;3.13;;;;;;;;;;5032487;28;20286;-54
2021/12/09 10:11:29;;;;;;;5.90;4.00;;;;;;;;;;5032189;28;20025;-51
2021/12/09 10:14:07;;;;;;;11.07;4.20;;;;;;;;;;5032008;28;20363;-52
2021/12/09 10:16:34;;;;;;;4.32;3.35;;;;;;;;;;5032269;28;20025;-52
2021/12/09 10:19:00;;;;;;;8.20;3.72;;;;;;;;;;5048800;28;20379;-55
2021/12/09 10:21:28;;;;;;;11.68;4.25;;;;;;;;;;5055473;28;20025;-53
2021/12/09 10:23:58;;;;;;;7.40;3.80;;;;;;;;;;5048260;28;20071;-54
2021/12/09 10:26:32;;;;;;;6.32;3.85;;;;;;;;;;5036064;28;20036;-55
2021/12/09 10:29:14;;;;;;;4.32;3.63;;;;;;;;;;5051941;28;20033;-56
2021/12/09 10:31:43;;;;;;;5.90;3.83;;;;;;;;;;5056092;28;20159;-54
2021/12/09 10:36:57;;;;;;;4.60;3.80;;;;;;;;;;5052695;28;20297;-50
2021/12/09 10:39:25;;;;;;;4.20;2.73;;;;;;;;;;5054748;28;20094;-54
2021/12/09 10:41:52;;;;;;;8.00;4.67;;;;;;;;;;5055879;28;20103;-55
2021/12/09 10:44:29;;;;;;;6.30;4.43;;;;;;;;;;5055638;28;20028;-52
2021/12/09 10:47:05;;;;;;;10.10;4.10;;;;;;;;;;5036912;28;20067;-54
2021/12/09 10:49:39;;;;;;;4.43;3.45;;;;;;;;;;5032708;28;20044;-53
2021/12/09 10:52:26;;;;;;;5.65;3.63;;;;;;;;;;5035611;28;20039;-56
2021/12/09 10:54:53;;;;;;;8.32;3.35;;;;;;;;;;5036165;28;20036;-55
2021/12/09 10:57:22;;;;;;;6.03;3.60;;;;;;;;;;5055367;28;20033;-55
2021/12/09 10:59:48;;;;;;;4.50;3.25;;;;;;;;;;5054294;28;20071;-52
2021/12/09 11:02:14;;;;;;;5.37;2.63;;;;;;;;;;5055006;28;20024;-55
2021/12/09 11:04:40;;;;;;;4.07;2.70;;;;;;;;;;5069639;28;20033;-55
2021/12/09 11:07:27;;;;;;;3.47;2.75;;;;;;;;;;5055869;28;20031;-56
2021/12/09 11:10:13;;;;;;;3.28;2.45;;;;;;;;;;5054413;28;20033;-54
2021/12/09 11:12:39;;;;;;;3.63;3.00;;;;;;;;;;5054800;28;20033;-54
2021/12/09 11:15:05;;;;;;;4.72;3.50;;;;;;;;;;5052981;28;20116;-54
2021/12/09 11:17:38;;;;;;;4.30;3.17;;;;;;;;;;5035119;28;20030;-50
2021/12/09 11:20:04;;;;;;;3.78;2.63;;;;;;;;;;5034384;28;20026;-55
2021/12/09 11:22:34;;;;;;;5.72;2.78;;;;;;;;;;5035487;28;20026;-55
2021/12/09 11:25:03;;;;;;;5.90;3.10;;;;;;;;;;5053734;28;20079;-52
2021/12/09 11:27:30;;;;;;;7.72;3.40;;;;;;;;;;5054786;28;20493;-52
2021/12/09 11:30:08;;;;;;;4.35;3.10;;;;;;;;;;5054179;28;20061;-55
2021/12/09 11:35:20;;;;;;;3.30;2.45;;;;;;;;;;5053448;28;20043;-51
2021/12/09 11:40:38;;;;;;;3.05;2.13;;;;;;;;;;5034866;28;20637;-54
2021/12/09 11:43:06;;;;;;;6.47;2.50;;;;;;;;;;5034742;28;20034;-49
2021/12/09 11:45:40;;;;;;;4.78;2.75;;;;;;;;;;5034323;28;20386;-54
2021/12/09 11:48:07;;;;;;;3.30;1.67;;;;;;;;;;5049165;28;20036;-55
2021/12/09 11:50:35;;;;;;;5.95;2.50;;;;;;;;;;5054389;28;20041;-54
2021/12/09 11:53:04;;;;;;;4.55;2.30;;;;;;;;;;5054414;28;20029;-52
2021/12/09 11:55:38;;;;;;;5.00;2.97;;;;;;;;;;5054133;28;20029;-51
2021/12/09 11:58:12;;;;;;;5.50;2.53;;;;;;;;;;5036985;28;20483;-56
2021/12/09 12:12:01;;;;;;;3.88;2.25;;;;;;;;;;5033130;28;20138;-52
2021/12/09 12:14:41;;;;;;;10.98;2.38;;;;;;;;;;5032346;28;20033;-50
2021/12/09 12:17:15;;;;;;;3.97;1.95;;;;;;;;;;5043099;28;20033;-50
2021/12/09 12:19:51;;;;;;;8.02;2.65;;;;;;;;;;5053394;28;20044;-50
2021/12/09 12:25:37;;;;;;;4.75;2.28;;;;;;;;;;5033803;28;20036;-52
2021/12/09 12:33:35;;;;;;;5.43;3.10;;;;;;;;;;5053538;28;20094;-51
2021/12/09 12:36:27;;;;;;;5.78;1.63;;;;;;;;;;5050254;28;20049;-52
2021/12/09 12:39:11;;;;;;;3.92;1.75;;;;;;;;;;5032668;28;20430;-54
2021/12/09 12:41:57;;;;;;;3.35;2.08;;;;;;;;;;5033332;28;20052;-53
2021/12/09 12:44:23;;;;;;;4.00;2.10;;;;;;;;;;5032933;28;20030;-54
2021/12/09 12:47:07;;;;;;;6.28;2.05;;;;;;;;;;5041962;28;20036;-50
2021/12/09 12:49:36;;;;;;;4.15;2.33;;;;;;;;;;5052602;28;20486;-54
2021/12/09 12:52:15;;;;;;;3.05;1.90;;;;;;;;;;5053183;28;20356;-50
2021/12/09 12:57:26;;;;;;;3.08;1.77;;;;;;;;;;5040325;28;20037;-52
2021/12/09 13:00:02;;;;;;;4.00;1.95;;;;;;;;;;5032584;28;20033;-54
2021/12/09 13:03:03;;;;;;;6.38;2.50;;;;;;;;;;5033050;28;20387;-51
2021/12/09 13:05:43;;;;;;;3.42;1.55;;;;;;;;;;5032833;28;20103;-52
2021/12/09 13:08:28;;;;;;;3.33;1.60;;;;;;;;;;5051350;28;20116;-54
2021/12/09 13:16:24;;;;;;;8.15;1.67;;;;;;;;;;5050744;28;20425;-50
2021/12/09 13:19:29;;;;;;;7.38;2.53;;;;;;;;;;5032398;28;20116;-53
2021/12/09 13:21:57;;;;;;;2.95;1.75;;;;;;;;;;5032484;28;20033;-51
2021/12/09 13:30:31;;;;;;;2.43;1.43;;;;;;;;;;5051942;28;20504;-53
2021/12/09 13:49:05;;;;;;;4.07;1.35;;;;;;;;;;5032173;28;20045;-50
2021/12/09 13:51:54;;;;;;;6.53;1.80;;;;;;;;;;5032427;28;20038;-48
2021/12/09 13:54:29;;;;;;;6.45;1.27;;;;;;;;;;5031385;28;20479;-49
2021/12/09 13:56:59;;;;;;;4.93;1.77;;;;;;;;;;5031962;28;20395;-48
2021/12/09 13:59:26;;;;;;;5.97;1.30;;;;;;;;;;5031420;28;20430;-50
2021/12/09 14:01:53;;;;;;;3.67;1.45;;;;;;;;;;5032225;28;20036;-53
2021/12/09 14:04:22;;;;;;;4.45;1.45;;;;;;;;;;5055296;28;20035;-51
2021/12/09 14:06:56;;;;;;;5.05;1.73;;;;;;;;;;5051480;28;20029;-53
2021/12/09 14:09:23;;;;;;;3.55;1.30;;;;;;;;;;5051484;28;20021;-52
2021/12/09 14:11:50;;;;;;;2.33;1.00;;;;;;;;;;5051841;28;20032;-53
2021/12/09 14:14:24;;;;;;;5.45;1.23;;;;;;;;;;5051904;28;20033;-52
2021/12/09 14:16:55;;;;;;;5.00;1.55;;;;;;;;;;5031986;28;20065;-51
2021/12/09 14:21:49;;;;;;;5.20;1.58;;;;;;;;;;5032029;28;20033;-54
2021/12/09 14:24:16;;;;;;;8.07;1.38;;;;;;;;;;5047221;28;20060;-54
2021/12/09 14:26:48;;;;;;;9.68;2.05;;;;;;;;;;5051229;28;20538;-56
2021/12/09 14:29:14;;;;;;;4.60;2.38;;;;;;;;;;5051197;28;20390;-55
2021/12/09 14:31:42;;;;;;;5.10;1.35;;;;;;;;;;5051680;28;20079;-51
2021/12/09 14:34:08;;;;;;;4.72;1.60;;;;;;;;;;5051733;28;20079;-53
2021/12/09 14:36:35;;;;;;;4.47;1.60;;;;;;;;;;5050090;28;20044;-54
2021/12/09 14:39:04;;;;;;;2.30;0.90;;;;;;;;;;5051115;28;20064;-51
2021/12/09 14:41:30;;;;;;;3.90;1.33;;;;;;;;;;5049262;28;20076;-54
2021/12/09 14:43:57;;;;;;;3.35;0.93;;;;;;;;;;5031845;28;20033;-51
2021/12/09 14:46:26;;;;;;;10.25;1.95;;;;;;;;;;5031568;28;20113;-54
2021/12/09 14:48:53;;;;;;;5.90;1.70;;;;;;;;;;5031114;28;20032;-51
2021/12/09 14:51:24;;;;;;;11.57;2.33;;;;;;;;;;5032179;28;20483;-53
2021/12/09 14:53:51;;;;;;;6.53;0.98;;;;;;;;;;5051554;28;20114;-50
2021/12/09 14:56:29;;;;;;;5.95;1.50;;;;;;;;;;5051632;28;20028;-51
2021/12/09 14:59:13;;;;;;;1.60;0.75;;;;;;;;;;5049110;28;20427;-50
2021/12/09 15:01:39;;;;;;;4.82;1.48;;;;;;;;;;5040938;28;20026;-51
2021/12/09 15:04:14;;;;;;;3.17;1.13;;;;;;;;;;5050067;28;20037;-51
2021/12/09 15:06:42;;;;;;;4.80;1.58;;;;;;;;;;5045048;28;20101;-55
2021/12/09 15:09:14;;;;;;;3.75;1.25;;;;;;;;;;5074582;28;20037;-52
2021/12/09 15:11:46;;;;;;;17.08;2.22;;;;;;;;;;5055523;28;20079;-51
2021/12/09 15:14:33;;;;;;;9.60;2.45;;;;;;;;;;5034895;28;20033;-52
2021/12/09 15:17:05;;;;;;;5.20;1.92;;;;;;;;;;5035964;28;20033;-54
2021/12/09 15:19:32;;;;;;;9.27;1.88;;;;;;;;;;5044079;28;20406;-54
2021/12/09 15:22:19;;;;;;;6.32;1.75;;;;;;;;;;5046712;28;20027;-55
2021/12/09 15:25:03;;;;;;;7.13;1.90;;;;;;;;;;5043085;28;20071;-53
2021/12/09 15:27:47;;;;;;;2.92;1.38;;;;;;;;;;5035783;28;20101;-52
2021/12/09 15:30:13;;;;;;;2.53;1.20;;;;;;;;;;5040449;28;20045;-55
2021/12/09 15:32:55;;;;;;;6.88;1.42;;;;;;;;;;5037483;28;20036;-53
2021/12/09 15:35:22;;;;;;;10.40;1.67;;;;;;;;;;5043886;28;20037;-52
2021/12/09 15:37:47;;;;;;;6.50;1.75;;;;;;;;;;5035399;28;20034;-52
2021/12/09 15:40:14;;;;;;;3.97;1.48;;;;;;;;;;5043454;28;20391;-51
2021/12/09 15:42:40;;;;;;;5.97;2.00;;;;;;;;;;5047196;28;20498;-52
2021/12/09 15:45:07;;;;;;;3.28;2.10;;;;;;;;;;5051846;28;20021;-51
2021/12/09 15:47:34;;;;;;;2.35;1.02;;;;;;;;;;5047332;28;20489;-51
2021/12/09 15:50:01;;;;;;;7.70;1.50;;;;;;;;;;5036406;28;20514;-51
2021/12/09 15:52:30;;;;;;;2.60;1.47;;;;;;;;;;5048227;28;20060;-52
2021/12/09 15:54:58;;;;;;;4.67;1.50;;;;;;;;;;5046752;28;20056;-51
2021/12/09 15:57:28;;;;;;;4.50;1.57;;;;;;;;;;5049310;28;20025;-49
2021/12/09 15:59:54;;;;;;;8.30;2.97;;;;;;;;;;5035571;28;20040;-48